createdAt,value
2017-03-27T00:00:39.677Z,0
2017-03-27T00:01:34.744Z,0
2017-03-27T00:02:35.702Z,0
2017-03-27T00:03:35.816Z,0
2017-03-27T00:04:41.832Z,0
2017-03-27T00:05:36.761Z,0
2017-03-27T00:06:31.805Z,0
2017-03-27T00:07:32.946Z,0
2017-03-27T00:08:32.896Z,0
2017-03-27T00:09:32.936Z,0
2017-03-27T00:10:27.937Z,0
2017-03-27T00:11:21.965Z,0
2017-03-27T00:12:11.006Z,0
2017-03-27T00:13:11.029Z,0
2017-03-27T00:14:05.088Z,0
2017-03-27T00:15:05.103Z,0
2017-03-27T00:16:05.102Z,0
2017-03-27T00:17:00.173Z,0
2017-03-27T00:17:54.169Z,0
2017-03-27T00:18:54.143Z,0
2017-03-27T00:19:49.190Z,0
2017-03-27T00:20:44.926Z,0
2017-03-27T00:21:44.313Z,0
2017-03-27T00:22:39.239Z,0
2017-03-27T00:23:34.374Z,0
2017-03-27T00:24:23.381Z,0
2017-03-27T00:25:17.405Z,0
2017-03-27T00:26:12.464Z,0
2017-03-27T00:27:00.550Z,0
2017-03-27T00:27:48.534Z,0
2017-03-27T00:28:42.528Z,0
2017-03-27T00:29:36.504Z,0
2017-03-27T00:30:25.704Z,0
2017-03-27T00:31:19.922Z,0
2017-03-27T00:32:08.724Z,0
2017-03-27T00:33:03.727Z,0
2017-03-27T00:34:03.716Z,0
2017-03-27T00:34:58.812Z,0
2017-03-27T00:35:53.807Z,0
2017-03-27T00:36:42.857Z,0
2017-03-27T00:37:37.896Z,0
2017-03-27T00:38:37.882Z,0
2017-03-27T00:39:37.867Z,0
2017-03-27T00:40:32.928Z,0
2017-03-27T00:41:27.647Z,0
2017-03-27T00:42:27.019Z,0
2017-03-27T00:43:22.032Z,0
2017-03-27T00:44:17.192Z,0
2017-03-27T00:45:17.144Z,0
2017-03-27T00:46:12.164Z,0
2017-03-27T00:47:07.170Z,0
2017-03-27T00:48:08.269Z,0
2017-03-27T00:49:02.184Z,0
2017-03-27T00:49:56.174Z,0
2017-03-27T00:50:50.254Z,0
2017-03-27T00:51:38.261Z,0
2017-03-27T00:52:33.329Z,0
2017-03-27T00:53:21.457Z,0
2017-03-27T00:54:10.483Z,0
2017-03-27T00:55:10.421Z,0
2017-03-27T00:55:59.593Z,0
2017-03-27T00:56:47.538Z,0
2017-03-27T00:57:41.499Z,0
2017-03-27T00:58:42.137Z,0
2017-03-27T00:59:30.562Z,0
2017-03-27T01:00:24.631Z,0
2017-03-27T01:01:19.717Z,0
2017-03-27T01:02:07.711Z,0
2017-03-27T01:03:02.793Z,0
2017-03-27T01:03:51.874Z,0
2017-03-27T01:04:40.769Z,0
2017-03-27T01:05:34.826Z,0
2017-03-27T01:06:28.960Z,0
2017-03-27T01:07:22.883Z,0
2017-03-27T01:08:10.963Z,0
2017-03-27T01:09:00.026Z,0
2017-03-27T01:09:48.985Z,0
2017-03-27T01:10:42.998Z,0
2017-03-27T01:11:37.118Z,0
2017-03-27T01:12:26.109Z,0
2017-03-27T01:13:21.183Z,0
2017-03-27T01:14:09.170Z,0
2017-03-27T01:14:58.136Z,0
2017-03-27T01:15:52.249Z,0
2017-03-27T01:16:40.241Z,0
2017-03-27T01:17:29.326Z,0
2017-03-27T01:18:29.353Z,0
2017-03-27T01:19:23.591Z,0
2017-03-27T01:20:23.404Z,0
2017-03-27T01:21:11.438Z,0
2017-03-27T01:22:06.470Z,0
2017-03-27T01:23:00.483Z,0
2017-03-27T01:24:00.484Z,0
2017-03-27T01:24:48.559Z,0
2017-03-27T01:25:42.593Z,0
2017-03-27T01:26:37.599Z,0
2017-03-27T01:27:31.632Z,0
2017-03-27T01:28:31.732Z,0
2017-03-27T01:29:26.689Z,0
2017-03-27T01:30:32.711Z,0
2017-03-27T01:31:27.720Z,0
2017-03-27T01:32:21.950Z,0
2017-03-27T01:33:21.767Z,0
2017-03-27T01:34:21.804Z,0
2017-03-27T01:35:16.815Z,0
2017-03-27T01:36:10.909Z,0
2017-03-27T01:37:10.889Z,0
2017-03-27T01:38:05.921Z,0
2017-03-27T01:39:00.944Z,0
2017-03-27T01:40:02.003Z,0
2017-03-27T01:41:02.061Z,0
2017-03-27T01:42:02.108Z,0
2017-03-27T01:43:02.012Z,0
2017-03-27T01:44:03.064Z,0
2017-03-27T01:45:04.110Z,0
2017-03-27T01:45:58.164Z,0
2017-03-27T01:46:58.165Z,0
2017-03-27T01:47:53.187Z,0
2017-03-27T01:48:48.264Z,0
2017-03-27T01:49:48.244Z,0
2017-03-27T01:50:43.207Z,0
2017-03-27T01:51:38.349Z,0
2017-03-27T01:52:38.313Z,0
2017-03-27T01:53:33.379Z,0
2017-03-27T01:54:28.404Z,0
2017-03-27T01:55:29.429Z,0
2017-03-27T01:56:29.402Z,0
2017-03-27T01:57:29.541Z,0
2017-03-27T01:58:29.552Z,0
2017-03-27T01:59:30.543Z,0
2017-03-27T02:00:31.485Z,0
2017-03-27T02:01:25.601Z,0
2017-03-27T02:02:25.621Z,0
2017-03-27T02:03:20.649Z,0
2017-03-27T02:04:20.640Z,0
2017-03-27T02:05:20.678Z,0
2017-03-27T02:06:20.652Z,0
2017-03-27T02:07:14.713Z,0
2017-03-27T02:08:09.727Z,0
2017-03-27T02:09:09.745Z,0
2017-03-27T02:10:03.761Z,0
2017-03-27T02:10:58.844Z,0
2017-03-27T02:11:53.912Z,0
2017-03-27T02:12:47.864Z,0
2017-03-27T02:13:43.000Z,0
2017-03-27T02:14:43.896Z,0
2017-03-27T02:15:38.044Z,0
2017-03-27T02:16:26.953Z,0
2017-03-27T02:17:20.957Z,0
2017-03-27T02:18:09.109Z,0
2017-03-27T02:19:03.080Z,0
2017-03-27T02:19:52.154Z,0
2017-03-27T02:20:40.185Z,0
2017-03-27T02:21:35.214Z,0
2017-03-27T02:22:23.258Z,0
2017-03-27T02:23:11.448Z,0
2017-03-27T02:23:59.318Z,0
2017-03-27T02:24:47.417Z,0
2017-03-27T02:25:35.375Z,0
2017-03-27T02:26:23.383Z,0
2017-03-27T02:27:12.510Z,0
2017-03-27T02:28:00.494Z,0
2017-03-27T02:28:49.490Z,0
2017-03-27T02:29:37.601Z,0
2017-03-27T02:30:25.586Z,0
2017-03-27T02:31:26.589Z,0
2017-03-27T02:32:26.700Z,0
2017-03-27T02:33:26.736Z,0
2017-03-27T02:34:20.703Z,0
2017-03-27T02:35:20.644Z,0
2017-03-27T02:36:15.794Z,0
2017-03-27T02:37:10.794Z,0
2017-03-27T02:38:10.807Z,0
2017-03-27T02:39:05.783Z,0
2017-03-27T02:40:00.902Z,0
2017-03-27T02:41:00.917Z,0
2017-03-27T02:41:55.952Z,0
2017-03-27T02:42:55.932Z,0
2017-03-27T02:43:49.963Z,0
2017-03-27T02:44:49.942Z,0
2017-03-27T02:45:44.051Z,0
2017-03-27T02:46:50.028Z,0
2017-03-27T02:47:50.093Z,0
2017-03-27T02:48:45.105Z,0
2017-03-27T02:49:39.153Z,0
2017-03-27T02:50:40.171Z,0
2017-03-27T02:51:40.155Z,0
2017-03-27T02:52:35.243Z,0
2017-03-27T02:53:35.241Z,0
2017-03-27T02:54:29.246Z,0
2017-03-27T02:55:29.292Z,0
2017-03-27T02:56:24.309Z,0
2017-03-27T02:57:19.341Z,0
2017-03-27T02:58:20.387Z,0
2017-03-27T02:59:21.338Z,0
2017-03-27T03:00:16.419Z,0
2017-03-27T03:01:10.513Z,0
2017-03-27T03:02:10.488Z,0
2017-03-27T03:02:59.543Z,0
2017-03-27T03:03:47.553Z,0
2017-03-27T03:04:48.601Z,0
2017-03-27T03:05:42.667Z,0
2017-03-27T03:06:42.615Z,0
2017-03-27T03:07:37.680Z,0
2017-03-27T03:08:32.717Z,0
2017-03-27T03:09:38.673Z,0
2017-03-27T03:10:32.732Z,0
2017-03-27T03:11:27.855Z,0
2017-03-27T03:12:22.849Z,0
2017-03-27T03:13:11.932Z,0
2017-03-27T03:14:00.857Z,0
2017-03-27T03:15:06.913Z,0
2017-03-27T03:16:01.907Z,0
2017-03-27T03:16:55.889Z,0
2017-03-27T03:17:56.011Z,0
2017-03-27T03:18:49.988Z,0
2017-03-27T03:19:50.074Z,0
2017-03-27T03:20:50.165Z,0
2017-03-27T03:21:44.089Z,0
2017-03-27T03:22:33.133Z,0
2017-03-27T03:23:21.172Z,0
2017-03-27T03:24:09.208Z,0
2017-03-27T03:24:58.214Z,0
2017-03-27T03:25:52.319Z,0
2017-03-27T03:26:52.292Z,0
2017-03-27T03:27:46.312Z,0
2017-03-27T03:28:34.432Z,0
2017-03-27T03:29:22.485Z,0
2017-03-27T03:30:10.337Z,0
2017-03-27T03:31:10.414Z,0
2017-03-27T03:31:58.464Z,0
2017-03-27T03:32:46.460Z,0
2017-03-27T03:33:34.777Z,0
2017-03-27T03:34:23.592Z,0
2017-03-27T03:35:12.615Z,0
2017-03-27T03:36:01.666Z,0
2017-03-27T03:36:50.660Z,0
2017-03-27T03:37:38.706Z,0
2017-03-27T03:38:32.684Z,0
2017-03-27T03:39:27.801Z,0
2017-03-27T03:40:28.815Z,0
2017-03-27T03:41:28.818Z,0
2017-03-27T03:42:28.872Z,0
2017-03-27T03:43:23.936Z,0
2017-03-27T03:44:12.924Z,0
2017-03-27T03:45:07.968Z,0
2017-03-27T03:45:56.997Z,0
2017-03-27T03:46:51.003Z,0
2017-03-27T03:47:46.052Z,0
2017-03-27T03:48:34.104Z,0
2017-03-27T03:49:23.108Z,0
2017-03-27T03:50:12.140Z,0
2017-03-27T03:51:00.236Z,0
2017-03-27T03:51:49.237Z,0
2017-03-27T03:52:37.417Z,0
2017-03-27T03:53:25.382Z,0
2017-03-27T03:54:14.387Z,0
2017-03-27T03:55:02.550Z,0
2017-03-27T03:55:51.800Z,0
2017-03-27T03:56:45.465Z,0
2017-03-27T03:57:40.503Z,0
2017-03-27T03:58:35.567Z,0
2017-03-27T03:59:36.536Z,0
2017-03-27T04:00:31.578Z,0
2017-03-27T04:01:25.933Z,0
2017-03-27T04:02:13.645Z,0
2017-03-27T04:03:01.701Z,0
2017-03-27T04:03:50.676Z,0
2017-03-27T04:04:44.728Z,0
2017-03-27T04:05:39.771Z,0
2017-03-27T04:06:39.781Z,0
2017-03-27T04:07:39.871Z,0
2017-03-27T04:08:33.843Z,0
2017-03-27T04:09:28.840Z,0
2017-03-27T04:10:28.938Z,0
2017-03-27T04:11:22.988Z,0
2017-03-27T04:12:11.975Z,0
2017-03-27T04:13:01.050Z,0
2017-03-27T04:13:49.039Z,0
2017-03-27T04:14:37.066Z,0
2017-03-27T04:15:26.120Z,0
2017-03-27T04:16:26.116Z,0
2017-03-27T04:17:20.166Z,0
2017-03-27T04:18:20.226Z,0
2017-03-27T04:19:15.770Z,0
2017-03-27T04:20:10.247Z,0
2017-03-27T04:21:11.234Z,0
2017-03-27T04:22:11.266Z,0
2017-03-27T04:23:11.404Z,0
2017-03-27T04:24:11.374Z,0
2017-03-27T04:25:00.315Z,0
2017-03-27T04:25:55.434Z,0
2017-03-27T04:26:50.418Z,0
2017-03-27T04:27:45.537Z,0
2017-03-27T04:28:39.494Z,0
2017-03-27T04:29:34.516Z,0
2017-03-27T04:30:29.463Z,0
2017-03-27T04:31:30.075Z,0
2017-03-27T04:32:24.642Z,0
2017-03-27T04:33:19.673Z,0
2017-03-27T04:34:13.725Z,0
2017-03-27T04:35:08.721Z,0
2017-03-27T04:36:02.717Z,0
2017-03-27T04:37:02.704Z,0
2017-03-27T04:37:57.742Z,0
2017-03-27T04:38:57.808Z,0
2017-03-27T04:39:51.809Z,4
2017-03-27T04:40:51.881Z,0
2017-03-27T04:41:46.879Z,0
2017-03-27T04:42:40.899Z,4
2017-03-27T04:43:40.931Z,4
2017-03-27T04:44:34.927Z,4
2017-03-27T04:45:30.039Z,4
2017-03-27T04:46:23.999Z,4
2017-03-27T04:47:24.037Z,4
2017-03-27T04:48:19.098Z,8
2017-03-27T04:49:14.091Z,8
2017-03-27T04:50:15.084Z,8
2017-03-27T04:51:15.098Z,12
2017-03-27T04:52:15.206Z,16
2017-03-27T04:53:15.230Z,16
2017-03-27T04:54:10.232Z,20
2017-03-27T04:55:04.966Z,24
2017-03-27T04:55:58.302Z,28
2017-03-27T04:56:58.316Z,32
2017-03-27T04:57:47.477Z,40
2017-03-27T04:58:41.366Z,48
2017-03-27T04:59:36.362Z,52
2017-03-27T05:00:25.453Z,60
2017-03-27T05:01:13.454Z,68
2017-03-27T05:02:14.501Z,80
2017-03-27T05:03:14.566Z,92
2017-03-27T05:04:14.575Z,108
2017-03-27T05:05:14.553Z,128
2017-03-27T05:06:14.564Z,148
2017-03-27T05:07:14.617Z,164
2017-03-27T05:08:14.683Z,192
2017-03-27T05:09:14.740Z,212
2017-03-27T05:10:14.729Z,240
2017-03-27T05:11:14.707Z,268
2017-03-27T05:12:14.729Z,300
2017-03-27T05:13:14.766Z,332
2017-03-27T05:14:09.850Z,364
2017-03-27T05:14:58.903Z,396
2017-03-27T05:16:04.988Z,436
2017-03-27T05:16:59.903Z,472
2017-03-27T05:17:53.962Z,512
2017-03-27T05:18:49.106Z,556
2017-03-27T05:19:48.980Z,604
2017-03-27T05:20:48.988Z,648
2017-03-27T05:21:44.105Z,700
2017-03-27T05:22:33.129Z,740
2017-03-27T05:23:22.164Z,780
2017-03-27T05:24:17.277Z,832
2017-03-27T05:25:11.571Z,888
2017-03-27T05:25:59.252Z,932
2017-03-27T05:26:53.239Z,984
2017-03-27T05:27:53.274Z,1040
2017-03-27T05:28:48.310Z,1096
2017-03-27T05:29:36.333Z,1148
2017-03-27T05:30:36.364Z,1208
2017-03-27T05:31:25.630Z,1256
2017-03-27T05:32:14.392Z,1312
2017-03-27T05:33:09.698Z,1364
2017-03-27T05:34:09.937Z,1428
2017-03-27T05:35:04.497Z,1484
2017-03-27T05:35:59.530Z,1540
2017-03-27T05:36:53.605Z,1596
2017-03-27T05:37:53.649Z,1660
2017-03-27T05:38:48.668Z,1716
2017-03-27T05:39:42.731Z,1772
2017-03-27T05:40:43.357Z,1836
2017-03-27T05:41:36.856Z,1888
2017-03-27T05:42:36.777Z,1952
2017-03-27T05:43:31.788Z,2012
2017-03-27T05:44:26.927Z,2068
2017-03-27T05:45:26.816Z,2132
2017-03-27T05:46:20.814Z,2188
2017-03-27T05:47:14.981Z,2244
2017-03-27T05:48:16.699Z,2304
2017-03-27T05:49:16.695Z,2364
2017-03-27T05:50:16.736Z,2424
2017-03-27T05:51:16.730Z,2480
2017-03-27T05:52:22.013Z,2540
2017-03-27T05:53:17.663Z,2596
2017-03-27T05:54:11.066Z,2652
2017-03-27T05:55:11.103Z,2780
2017-03-27T05:56:06.150Z,2952
2017-03-27T05:57:01.235Z,3112
2017-03-27T05:58:01.320Z,3252
2017-03-27T05:58:56.276Z,3308
2017-03-27T05:59:50.230Z,3364
2017-03-27T06:00:50.384Z,3420
2017-03-27T06:01:44.319Z,3468
2017-03-27T06:02:45.557Z,3528
2017-03-27T06:03:46.725Z,3588
2017-03-27T06:04:41.676Z,3648
2017-03-27T06:05:41.563Z,3712
2017-03-27T06:06:41.449Z,3784
2017-03-27T06:07:41.510Z,3900
2017-03-27T06:08:41.545Z,3932
2017-03-27T06:09:42.089Z,4020
2017-03-27T06:10:41.605Z,4084
2017-03-27T06:11:41.672Z,4116
2017-03-27T06:12:36.668Z,4236
2017-03-27T06:13:31.659Z,4292
2017-03-27T06:14:25.697Z,4364
2017-03-27T06:15:20.305Z,4424
2017-03-27T06:16:20.457Z,4512
2017-03-27T06:17:14.803Z,4572
2017-03-27T06:18:08.873Z,4660
2017-03-27T06:19:03.898Z,4736
2017-03-27T06:19:58.945Z,4800
2017-03-27T06:20:47.988Z,4844
2017-03-27T06:21:42.135Z,4968
2017-03-27T06:22:42.092Z,5092
2017-03-27T06:23:36.029Z,5192
2017-03-27T06:24:36.127Z,5392
2017-03-27T06:25:31.195Z,5552
2017-03-27T06:26:25.211Z,5656
2017-03-27T06:27:25.124Z,5872
2017-03-27T06:28:19.199Z,6176
2017-03-27T06:29:19.242Z,6524
2017-03-27T06:30:08.293Z,6792
2017-03-27T06:31:02.387Z,7608
2017-03-27T06:32:02.471Z,8148
2017-03-27T06:32:57.651Z,8200
2017-03-27T06:33:52.451Z,8328
2017-03-27T06:34:52.558Z,8456
2017-03-27T06:35:47.626Z,8616
2017-03-27T06:36:42.634Z,8700
2017-03-27T06:37:36.616Z,8432
2017-03-27T06:38:36.964Z,8388
2017-03-27T06:39:31.635Z,8668
2017-03-27T06:40:26.071Z,8852
2017-03-27T06:41:25.997Z,9532
2017-03-27T06:42:19.745Z,10240
2017-03-27T06:43:19.872Z,10608
2017-03-27T06:44:14.849Z,10604
2017-03-27T06:45:08.906Z,10556
2017-03-27T06:46:03.875Z,10836
2017-03-27T06:46:59.529Z,11020
2017-03-27T06:47:52.996Z,11028
2017-03-27T06:48:53.032Z,11564
2017-03-27T06:49:47.092Z,11844
2017-03-27T06:50:48.160Z,11764
2017-03-27T06:51:49.152Z,12472
2017-03-27T06:52:50.199Z,13268
2017-03-27T06:53:44.225Z,12864
2017-03-27T06:54:44.254Z,12312
2017-03-27T06:55:39.484Z,12264
2017-03-27T06:56:34.265Z,11892
2017-03-27T06:57:28.359Z,12284
2017-03-27T06:58:28.404Z,13816
2017-03-27T06:59:22.457Z,14560
2017-03-27T07:00:23.472Z,14356
2017-03-27T07:01:24.547Z,14756
2017-03-27T07:02:24.694Z,16512
2017-03-27T07:03:19.701Z,16724
2017-03-27T07:04:19.613Z,15632
2017-03-27T07:05:13.671Z,13612
2017-03-27T07:06:13.832Z,12948
2017-03-27T07:07:13.706Z,12928
2017-03-27T07:08:19.837Z,13056
2017-03-27T07:09:14.849Z,14400
2017-03-27T07:10:09.795Z,15616
2017-03-27T07:11:04.673Z,16448
2017-03-27T07:12:04.691Z,17280
2017-03-27T07:12:58.203Z,17344
2017-03-27T07:13:58.020Z,18432
2017-03-27T07:14:52.020Z,19424
2017-03-27T07:15:52.170Z,20032
2017-03-27T07:16:46.121Z,19712
2017-03-27T07:17:46.282Z,19840
2017-03-27T07:18:41.542Z,19392
2017-03-27T07:19:36.879Z,19168
2017-03-27T07:20:30.311Z,19776
2017-03-27T07:21:30.416Z,20928
2017-03-27T07:22:25.392Z,20096
2017-03-27T07:23:20.428Z,18432
2017-03-27T07:24:15.740Z,17952
2017-03-27T07:25:16.501Z,19904
2017-03-27T07:26:16.550Z,23360
2017-03-27T07:27:05.997Z,24736
2017-03-27T07:28:05.928Z,23552
2017-03-27T07:29:00.749Z,21568
2017-03-27T07:30:00.988Z,21152
2017-03-27T07:30:55.732Z,22048
2017-03-27T07:31:50.759Z,23264
2017-03-27T07:32:50.863Z,24320
2017-03-27T07:33:45.904Z,24800
2017-03-27T07:34:40.496Z,26464
2017-03-27T07:35:40.753Z,27104
2017-03-27T07:36:34.084Z,25984
2017-03-27T07:37:34.029Z,23040
2017-03-27T07:38:29.127Z,22016
2017-03-27T07:39:29.135Z,22112
2017-03-27T07:40:24.193Z,22240
2017-03-27T07:41:19.296Z,22976
2017-03-27T07:42:13.762Z,25408
2017-03-27T07:43:13.844Z,28352
2017-03-27T07:44:08.359Z,29280
2017-03-27T07:45:03.382Z,29504
2017-03-27T07:45:58.420Z,29216
2017-03-27T07:46:59.499Z,28224
2017-03-27T07:48:00.534Z,26656
2017-03-27T07:48:49.619Z,25760
2017-03-27T07:49:45.321Z,25504
2017-03-27T07:50:38.705Z,25344
2017-03-27T07:51:38.784Z,28640
2017-03-27T07:52:33.696Z,33024
2017-03-27T07:53:28.781Z,34784
2017-03-27T07:54:28.797Z,35904
2017-03-27T07:55:22.849Z,36704
2017-03-27T07:56:22.975Z,36192
2017-03-27T07:57:17.927Z,34496
2017-03-27T07:58:12.008Z,32672
2017-03-27T07:59:12.041Z,31904
2017-03-27T08:00:07.133Z,30624
2017-03-27T08:01:02.142Z,29984
2017-03-27T08:01:51.110Z,29760
2017-03-27T08:02:47.221Z,30720
2017-03-27T08:03:46.779Z,32480
2017-03-27T08:04:41.314Z,32928
2017-03-27T08:05:35.310Z,33216
2017-03-27T08:06:29.359Z,33600
2017-03-27T08:07:24.388Z,33088
2017-03-27T08:08:13.814Z,31712
2017-03-27T08:09:01.560Z,29696
2017-03-27T08:09:55.579Z,28960
2017-03-27T08:10:50.166Z,30176
2017-03-27T08:11:50.899Z,32128
2017-03-27T08:12:44.892Z,35200
2017-03-27T08:13:39.000Z,37632
2017-03-27T08:14:38.807Z,39936
2017-03-27T08:15:33.924Z,40864
2017-03-27T08:16:29.094Z,40352
2017-03-27T08:17:29.328Z,38848
2017-03-27T08:18:23.529Z,37440
2017-03-27T08:19:18.990Z,35936
2017-03-27T08:20:18.969Z,35040
2017-03-27T08:21:12.142Z,35488
2017-03-27T08:22:06.191Z,37408
2017-03-27T08:23:06.233Z,41568
2017-03-27T08:24:00.248Z,44480
2017-03-27T08:24:54.584Z,45632
2017-03-27T08:25:48.417Z,44736
2017-03-27T08:26:48.399Z,43008
2017-03-27T08:27:43.475Z,41056
2017-03-27T08:28:38.490Z,39232
2017-03-27T08:29:38.703Z,38592
2017-03-27T08:30:32.607Z,39712
2017-03-27T08:31:32.668Z,41984
2017-03-27T08:32:27.720Z,44096
2017-03-27T08:33:22.154Z,45280
2017-03-27T08:34:22.059Z,43872
2017-03-27T08:35:17.999Z,42592
2017-03-27T08:36:06.160Z,42304
2017-03-27T08:37:00.957Z,42784
2017-03-27T08:37:49.176Z,43008
2017-03-27T08:38:49.016Z,42688
2017-03-27T08:39:44.083Z,42144
2017-03-27T08:40:39.152Z,42560
2017-03-27T08:41:39.554Z,44128
2017-03-27T08:42:34.260Z,45248
2017-03-27T08:43:29.283Z,46208
2017-03-27T08:44:23.449Z,47424
2017-03-27T08:45:23.374Z,47360
2017-03-27T08:46:18.527Z,46720
2017-03-27T08:47:13.790Z,45408
2017-03-27T08:48:13.572Z,45120
2017-03-27T08:49:08.586Z,46400
2017-03-27T08:50:02.621Z,48672
2017-03-27T08:50:57.353Z,51136
2017-03-27T08:51:50.765Z,52416
2017-03-27T08:52:52.102Z,50112
2017-03-27T08:53:51.856Z,47232
2017-03-27T08:54:51.982Z,48864
2017-03-27T08:55:45.902Z,49856
2017-03-27T08:56:45.995Z,51616
2017-03-27T08:57:40.012Z,51584
2017-03-27T08:58:34.033Z,51072
2017-03-27T08:59:34.183Z,49824
2017-03-27T09:00:29.672Z,50016
2017-03-27T09:01:30.674Z,47648
2017-03-27T09:02:30.912Z,45408
2017-03-27T09:03:24.343Z,43616
2017-03-27T09:04:24.748Z,43168
2017-03-27T09:05:19.466Z,43648
2017-03-27T09:06:08.446Z,46592
2017-03-27T09:07:03.471Z,50432
2017-03-27T09:08:03.626Z,53120
2017-03-27T09:08:59.033Z,53280
2017-03-27T09:09:53.089Z,51584
2017-03-27T09:10:47.675Z,49152
2017-03-27T09:11:47.721Z,47616
2017-03-27T09:12:42.833Z,46656
2017-03-27T09:13:36.851Z,47808
2017-03-27T09:14:31.355Z,50048
2017-03-27T09:15:31.527Z,53728
2017-03-27T09:16:25.973Z,58368
2017-03-27T09:17:20.212Z,61824
2017-03-27T09:18:20.181Z,62080
2017-03-27T09:19:15.160Z,60640
2017-03-27T09:20:10.267Z,60000
2017-03-27T09:21:04.780Z,59712
2017-03-27T09:22:04.794Z,57248
2017-03-27T09:22:59.831Z,54464
2017-03-27T09:23:54.481Z,51232
2017-03-27T09:24:49.485Z,50016
2017-03-27T09:25:55.473Z,53440
2017-03-27T09:26:50.710Z,58368
2017-03-27T09:27:50.691Z,63808
2017-03-27T09:28:50.661Z,65568
2017-03-27T09:29:44.694Z,63712
2017-03-27T09:30:44.822Z,60224
2017-03-27T09:31:39.247Z,56160
2017-03-27T09:32:39.305Z,52896
2017-03-27T09:33:33.947Z,51168
2017-03-27T09:34:33.953Z,52672
2017-03-27T09:35:27.985Z,56896
2017-03-27T09:36:28.017Z,62304
2017-03-27T09:37:23.108Z,66176
2017-03-27T09:38:18.482Z,69280
2017-03-27T09:39:07.729Z,69440
2017-03-27T09:40:02.590Z,66432
2017-03-27T09:41:02.265Z,60160
2017-03-27T09:41:57.482Z,55360
2017-03-27T09:42:51.485Z,50656
2017-03-27T09:43:51.741Z,51200
2017-03-27T09:44:45.528Z,55424
2017-03-27T09:45:40.210Z,62304
2017-03-27T09:46:34.728Z,68960
2017-03-27T09:47:34.671Z,73824
2017-03-27T09:48:34.816Z,30336
2017-03-27T09:49:35.114Z,66048
2017-03-27T09:50:22.878Z,59168
2017-03-27T09:51:17.918Z,54368
2017-03-27T09:52:12.452Z,51744
2017-03-27T09:53:01.029Z,52672
2017-03-27T09:53:56.059Z,57760
2017-03-27T09:54:56.103Z,64864
2017-03-27T09:55:45.136Z,68736
2017-03-27T09:56:39.322Z,72384
2017-03-27T09:57:39.260Z,7240
2017-03-27T09:58:33.521Z,73248
2017-03-27T09:59:33.453Z,72928
2017-03-27T10:00:28.493Z,71360
2017-03-27T10:01:22.738Z,67744
2017-03-27T10:02:22.560Z,0
2017-03-27T10:03:17.563Z,58528
2017-03-27T10:04:13.345Z,57088
2017-03-27T10:05:06.683Z,58336
2017-03-27T10:06:01.885Z,60352
2017-03-27T10:07:01.767Z,62208
2017-03-27T10:08:01.808Z,63488
2017-03-27T10:09:01.852Z,67712
2017-03-27T10:10:01.951Z,71488
2017-03-27T10:10:55.991Z,70048
2017-03-27T10:11:56.276Z,69024
2017-03-27T10:12:51.152Z,67744
2017-03-27T10:13:46.687Z,67360
2017-03-27T10:14:40.165Z,68448
2017-03-27T10:15:41.189Z,69440
2017-03-27T10:16:36.274Z,68128
2017-03-27T10:17:36.583Z,65248
2017-03-27T10:18:31.375Z,7732
2017-03-27T10:19:26.391Z,56160
2017-03-27T10:20:27.443Z,57888
2017-03-27T10:21:27.477Z,62976
2017-03-27T10:22:21.499Z,69280
2017-03-27T10:23:21.687Z,74592
2017-03-27T10:24:16.074Z,73248
2017-03-27T10:25:15.883Z,68096
2017-03-27T10:26:10.750Z,62560
2017-03-27T10:27:04.756Z,62080
2017-03-27T10:27:59.863Z,63648
2017-03-27T10:28:48.563Z,67104
2017-03-27T10:29:42.004Z,70496
2017-03-27T10:30:37.155Z,70304
2017-03-27T10:31:37.061Z,67424
2017-03-27T10:32:32.169Z,64096
2017-03-27T10:33:32.175Z,62112
2017-03-27T10:34:27.595Z,62432
2017-03-27T10:35:22.260Z,64608
2017-03-27T10:36:22.513Z,64736
2017-03-27T10:37:16.501Z,67072
2017-03-27T10:38:16.464Z,68352
2017-03-27T10:39:16.447Z,69920
2017-03-27T10:40:10.503Z,72672
2017-03-27T10:41:10.623Z,75776
2017-03-27T10:42:05.551Z,76672
2017-03-27T10:43:05.671Z,75008
2017-03-27T10:44:00.689Z,72832
2017-03-27T10:44:55.711Z,71040
2017-03-27T10:45:45.104Z,70336
2017-03-27T10:46:44.847Z,69600
2017-03-27T10:47:44.923Z,67968
2017-03-27T10:48:39.944Z,65024
2017-03-27T10:49:39.990Z,60960
2017-03-27T10:50:35.085Z,59552
2017-03-27T10:51:29.448Z,61088
2017-03-27T10:52:29.249Z,63456
2017-03-27T10:53:23.738Z,64544
2017-03-27T10:54:23.767Z,64288
2017-03-27T10:55:18.271Z,62432
2017-03-27T10:56:12.321Z,54656
2017-03-27T10:57:12.637Z,44128
2017-03-27T10:58:06.446Z,37248
2017-03-27T10:59:06.498Z,30144
2017-03-27T11:00:01.617Z,19712
2017-03-27T11:00:56.160Z,11944
2017-03-27T11:01:50.645Z,10396
2017-03-27T11:02:46.015Z,8540
2017-03-27T11:03:39.757Z,8228
2017-03-27T11:04:39.778Z,8028
2017-03-27T11:05:34.860Z,7744
2017-03-27T11:06:29.020Z,7536
2017-03-27T11:07:17.938Z,7764
2017-03-27T11:08:18.367Z,7500
2017-03-27T11:09:12.055Z,7528
2017-03-27T11:10:07.149Z,7544
2017-03-27T11:11:07.315Z,7780
2017-03-27T11:12:02.205Z,7872
2017-03-27T11:12:57.870Z,8188
2017-03-27T11:13:57.843Z,8128
2017-03-27T11:14:52.420Z,9428
2017-03-27T11:15:47.427Z,11236
2017-03-27T11:16:41.488Z,15968
2017-03-27T11:17:35.542Z,19616
2017-03-27T11:18:31.225Z,34752
2017-03-27T11:19:24.566Z,7684
2017-03-27T11:20:19.786Z,16768
2017-03-27T11:21:13.701Z,60800
2017-03-27T11:22:03.183Z,68992
2017-03-27T11:22:56.855Z,72384
2017-03-27T11:23:56.886Z,70304
2017-03-27T11:24:50.986Z,65696
2017-03-27T11:25:51.077Z,60736
2017-03-27T11:26:45.037Z,59008
2017-03-27T11:27:45.290Z,61024
2017-03-27T11:28:33.604Z,64320
2017-03-27T11:29:33.716Z,70048
2017-03-27T11:30:27.494Z,74208
2017-03-27T11:31:28.228Z,71680
2017-03-27T11:32:28.395Z,71424
2017-03-27T11:33:23.364Z,66368
2017-03-27T11:34:17.910Z,64896
2017-03-27T11:35:17.563Z,64608
2017-03-27T11:36:12.510Z,65728
2017-03-27T11:37:06.909Z,67872
2017-03-27T11:37:55.603Z,70016
2017-03-27T11:38:44.741Z,70976
2017-03-27T11:39:34.284Z,67392
2017-03-27T11:40:28.813Z,68608
2017-03-27T11:41:24.138Z,65376
2017-03-27T11:42:23.972Z,58912
2017-03-27T11:43:18.952Z,55712
2017-03-27T11:44:14.075Z,59712
2017-03-27T11:45:02.159Z,64672
2017-03-27T11:46:02.653Z,71776
2017-03-27T11:47:02.707Z,76224
2017-03-27T11:47:50.184Z,75424
2017-03-27T11:48:45.310Z,69472
2017-03-27T11:49:39.321Z,59584
2017-03-27T11:50:33.456Z,53664
2017-03-27T11:51:27.464Z,51968
2017-03-27T11:52:28.623Z,55552
2017-03-27T11:53:22.480Z,7388
2017-03-27T11:54:22.562Z,7216
2017-03-27T11:55:17.645Z,7448
2017-03-27T11:56:12.681Z,10816
2017-03-27T11:57:07.125Z,7000
2017-03-27T11:58:07.467Z,6968
2017-03-27T11:59:02.399Z,117664
2017-03-27T11:59:56.941Z,46272
2017-03-27T12:00:50.975Z,7036
2017-03-27T12:01:51.014Z,62016
2017-03-27T12:02:50.995Z,6976
2017-03-27T12:03:51.110Z,6936
2017-03-27T12:04:45.243Z,7016
2017-03-27T12:05:45.253Z,6900
2017-03-27T12:06:41.097Z,6972
2017-03-27T12:07:35.508Z,66272
2017-03-27T12:08:42.323Z,6996
2017-03-27T12:09:35.581Z,146336
2017-03-27T12:10:35.481Z,79328
2017-03-27T12:11:29.644Z,6936
2017-03-27T12:12:24.750Z,6996
2017-03-27T12:13:19.706Z,62464
2017-03-27T12:14:09.363Z,56160
2017-03-27T12:15:04.128Z,6840
2017-03-27T12:15:51.951Z,10332
2017-03-27T12:16:41.086Z,60896
2017-03-27T12:17:35.908Z,72000
2017-03-27T12:18:36.147Z,7848
2017-03-27T12:19:31.058Z,6808
2017-03-27T12:20:25.050Z,66368
2017-03-27T12:21:25.136Z,6892
2017-03-27T12:22:20.212Z,6852
2017-03-27T12:23:15.682Z,6900
2017-03-27T12:24:15.684Z,6988
2017-03-27T12:25:09.311Z,6972
2017-03-27T12:26:09.403Z,6908
2017-03-27T12:27:04.548Z,63680
2017-03-27T12:27:58.433Z,55936
2017-03-27T12:28:58.551Z,6900
2017-03-27T12:29:53.618Z,7016
2017-03-27T12:30:48.896Z,53280
2017-03-27T12:31:44.058Z,54944
2017-03-27T12:32:44.015Z,8220
2017-03-27T12:33:38.859Z,6936
2017-03-27T12:34:32.893Z,6944
2017-03-27T12:35:27.931Z,65696
2017-03-27T12:36:23.220Z,6960
2017-03-27T12:37:18.493Z,7128
2017-03-27T12:38:13.037Z,6956
2017-03-27T12:39:07.162Z,54368
2017-03-27T12:39:56.163Z,60960
2017-03-27T12:40:51.028Z,65280
2017-03-27T12:41:39.181Z,67552